Data for 07/17/2016

Time Sea-Level Adjusted Pressure Absolute Pressure Temperature Relative Humidity Dew Point   
(mb) (inHg) (mb) (inHg) (C) (F) (%) (C) (F)
00:05 1019 30.09 848 25.04 15.5 59.9 56 7 44.6
00:10 1019 30.09 848 25.04 15.4 59.7 56 6.8 44.3
00:15 1019 30.09 848 25.04 15.4 59.6 57 7 44.5
00:20 1019 30.09 848 25.04 15.2 59.4 57 6.9 44.5
00:25 1019 30.09 848 25.04 15.1 59.2 58 6.9 44.5
00:30 1019 30.09 848 25.04 15 59.1 58 6.9 44.4
00:35 1019 30.09 848 25.04 15 59 58 7 44.6
00:40 1019 30.09 848 25.04 14.9 58.7 59 7 44.5
00:45 1019 30.09 848 25.04 14.8 58.7 59 7 44.6
00:50 1019 30.09 848 25.04 14.8 58.6 59 7 44.6
00:55 1019 30.09 848 25.04 14.7 58.4 60 7.1 44.7
01:00 1019 30.09 848 25.04 14.6 58.3 60 7.1 44.8
01:05 1019 30.09 848 25.04 14.6 58.3 61 7.2 44.9
01:10 1019 30.09 848 25.04 14.5 58.1 61 7.2 45
01:15 1019 30.09 848 25.04 14.4 57.9 62 7.3 45.1
01:20 1019 30.09 848 25.04 14.3 57.8 62 7.2 45
01:25 1019 30.09 848 25.04 14.3 57.7 63 7.4 45.3
01:30 1019 30.09 848 25.04 14.2 57.5 63 7.4 45.3
01:35 1019 30.09 848 25.04 14.2 57.5 63 7.4 45.3
01:40 1019 30.09 848 25.04 14.1 57.5 64 7.4 45.3
01:45 1019 30.09 848 25.04 14.1 57.3 64 7.5 45.4
01:50 1019 30.09 848 25.04 14 57.1 65 7.5 45.5
01:55 1019 30.09 848 25.04 13.9 56.9 65 7.5 45.4
02:00 1019 30.09 848 25.04 13.9 56.9 65 7.5 45.5
02:05 1019 30.09 848 25.04 13.8 56.9 65 7.5 45.5
02:10 1019 30.09 848 25.04 13.8 56.9 66 7.5 45.6
02:15 1019 30.09 848 25.04 13.7 56.7 66 7.5 45.6
02:20 1019 30.09 848 25.04 13.6 56.6 67 7.6 45.7
02:25 1019 30.09 848 25.04 13.5 56.3 67 7.7 45.8
02:30 1019 30.09 849 25.07 13.3 56 68 7.6 45.7
02:35 1019 30.09 848 25.04 13.3 55.9 68 7.6 45.7
02:40 1019 30.09 848 25.04 13.4 56.1 68 7.6 45.7
02:45 1019 30.09 848 25.04 13.4 56.1 68 7.7 45.8
02:50 1019 30.09 848 25.04 13.3 56 69 7.7 45.9
02:55 1019 30.09 849 25.07 13.2 55.7 69 7.7 45.9
03:00 1019 30.09 849 25.07 12.8 55.1 71 7.7 45.8
03:05 1019 30.09 849 25.07 12.7 54.9 71 7.6 45.7
03:10 1019 30.09 848 25.04 12.6 54.6 72 7.7 45.8
03:15 1019 30.09 848 25.04 12.5 54.4 72 7.6 45.8
03:20 1019 30.09 848 25.04 12.4 54.3 72 7.6 45.7
03:25 1019 30.09 848 25.04 12.3 54.1 73 7.6 45.7
03:30 1019 30.09 849 25.07 12.3 54.2 73 7.6 45.6
03:35 1019 30.09 849 25.07 12.2 54 73 7.6 45.7
03:40 1019 30.09 849 25.07 12.1 53.8 73 7.5 45.5
03:45 1019 30.09 849 25.07 12.2 54 73 7.6 45.6
03:50 1019 30.09 849 25.07 12.4 54.3 72 7.5 45.5
03:55 1019 30.09 849 25.07 12.6 54.6 72 7.6 45.8
04:00 1019 30.09 849 25.07 12.4 54.2 73 7.8 46
04:05 1019 30.09 849 25.07 12 53.6 74 7.6 45.7
04:10 1020 30.12 849 25.07 12 53.5 74 7.5 45.6
04:15 1020 30.12 849 25.07 12 53.6 75 7.6 45.7
04:20 1020 30.12 849 25.07 11.9 53.5 75 7.6 45.7
04:25 1020 30.12 849 25.07 12 53.6 74 7.6 45.7
04:30 1020 30.12 849 25.07 12.1 53.8 74 7.6 45.7
04:35 1020 30.12 849 25.07 12.1 53.7 74 7.6 45.7
04:40 1020 30.12 849 25.07 12.1 53.8 74 7.7 45.8
04:45 1020 30.12 849 25.07 12.1 53.7 74 7.7 45.8
04:50 1020 30.12 849 25.07 12 53.6 75 7.7 45.8
04:55 1020 30.12 849 25.07 11.9 53.4 76 7.7 45.9
05:00 1020 30.12 849 25.07 11.8 53.2 76 7.7 45.8
05:05 1020 30.12 849 25.07 11.7 53.1 76 7.7 45.8
05:10 1020 30.12 849 25.07 11.6 52.9 77 7.7 45.8
05:15 1020 30.12 849 25.07 11.6 52.9 77 7.7 45.8
05:20 1020 30.12 849 25.07 11.8 53.3 76 7.7 45.8
05:25 1020 30.12 849 25.07 11.9 53.5 75 7.8 46
05:30 1020 30.12 849 25.07 12.1 53.8 75 7.8 46
05:35 1020 30.12 849 25.07 12.2 54 74 7.7 45.9
05:40 1020 30.12 849 25.07 12.5 54.4 73 7.8 46.1
05:45 1020 30.12 849 25.07 12.5 54.5 73 7.8 46
05:50 1020 30.12 849 25.07 12.6 54.7 73 8 46.3
05:55 1020 30.12 849 25.07 12.7 54.8 73 8 46.4
06:00 1020 30.12 849 25.07 12.7 54.9 72 7.9 46.3
06:05 1020 30.12 849 25.07 12.9 55.3 72 8 46.4
06:10 1020 30.12 849 25.07 13.1 55.6 71 8 46.4
06:15 1020 30.12 849 25.07 13.3 55.9 69 7.9 46.1
06:20 1020 30.12 849 25.07 13.5 56.4 69 8 46.4
06:25 1020 30.12 849 25.07 13.7 56.7 68 7.9 46.3
06:30 1020 30.12 849 25.07 14 57.1 67 8 46.3
06:35 1020 30.12 849 25.07 14.1 57.4 66 7.9 46.1
06:40 1020 30.12 849 25.07 14.3 57.7 65 7.9 46.3
06:45 1020 30.12 849 25.07 14.4 58 64 7.8 46
06:50 1020 30.12 849 25.07 14.6 58.3 64 7.9 46.2
06:55 1020 30.12 849 25.07 14.7 58.5 63 7.9 46.1
07:00 1020 30.12 849 25.07 15 58.9 62 7.8 46
07:05 1020 30.12 849 25.07 15.1 59.3 62 7.9 46.3
07:10 1020 30.12 849 25.07 15.3 59.6 61 7.9 46.2
07:15 1020 30.12 849 25.07 15.4 59.6 59 7.6 45.6
07:20 1020 30.12 849 25.07 15.1 59.2 59 7.3 45.2
07:25 1020 30.12 849 25.07 15.4 59.7 61 7.9 46.2
07:30 1020 30.12 849 25.07 15.6 60 58 7.4 45.3
07:35 1020 30.12 849 25.07 15.8 60.5 58 7.8 46
07:40 1020 30.12 849 25.07 16 60.9 58 7.8 46
07:45 1020 30.12 849 25.07 16 60.8 58 7.8 46.1
07:50 1020 30.12 849 25.07 15.7 60.3 59 7.7 45.9
07:55 1020 30.12 849 25.07 15.7 60.3 58 7.6 45.6
08:00 1020 30.12 849 25.07 15.8 60.4 57 7.5 45.5
08:05 1020 30.12 849 25.07 15.9 60.6 58 7.6 45.8
08:10 1020 30.12 849 25.07 16.2 61.1 55 7.3 45.2
08:15 1020 30.12 849 25.07 16.4 61.4 55 7.5 45.5
08:20 1020 30.12 849 25.07 16.6 61.8 55 7.6 45.6
08:25 1020 30.12 849 25.07 16.6 61.9 55 7.7 45.9
08:30 1020 30.12 849 25.07 16.7 62 55 7.8 46
08:35 1020 30.12 849 25.07 16.4 61.4 55 7.4 45.4
08:40 1020 30.12 849 25.07 16.6 62 54 7.4 45.4
08:45 1020 30.12 849 25.07 16.5 61.8 55 7.5 45.4
08:50 1020 30.12 849 25.07 16.5 61.6 55 7.5 45.6
08:55 1020 30.12 849 25.07 16.6 61.8 56 7.8 46
09:00 1020 30.12 849 25.07 16.9 62.4 54 7.7 45.9
09:05 1020 30.12 849 25.07 17.2 62.9 54 7.8 46
09:10 1020 30.12 849 25.07 17.2 63 52 7.4 45.3
09:15 1020 30.12 849 25.07 17.6 63.6 52 7.7 45.8
09:20 1020 30.12 849 25.07 17.7 63.9 51 7.7 45.8
09:25 1020 30.12 849 25.07 17.8 64 51 7.8 46
09:30 1020 30.12 849 25.07 17.6 63.7 52 7.6 45.8
09:35 1020 30.12 849 25.07 17.9 64.1 50 7.3 45.2
09:40 1020 30.12 849 25.07 18 64.5 49 7.4 45.3
09:45 1020 30.12 849 25.07 18.7 65.6 48 7.7 45.9
09:50 1020 30.12 849 25.07 18.6 65.5 47 7.3 45.2
09:55 1020 30.12 849 25.07 18.7 65.7 47 7.4 45.4
10:00 1020 30.12 849 25.07 19.1 66.3 46 7.2 44.9
10:05 1020 30.12 849 25.07 19.3 66.7 46 7.5 45.5
10:10 1020 30.12 849 25.07 20 68.1 45 7.9 46.3
10:15 1020 30.12 849 25.07 19.9 67.8 46 8 46.3
10:20 1020 30.12 849 25.07 19.9 67.8 48 8.6 47.4
10:25 1020 30.12 849 25.07 19.2 66.5 47 7.8 46.1
10:30 1020 30.12 849 25.07 19.7 67.4 47 8.3 47
10:35 1020 30.12 849 25.07 19.5 67.1 47 8.1 46.6
10:40 1020 30.12 849 25.07 19.6 67.3 45 7.4 45.4
10:45 1020 30.12 849 25.07 20.6 69 42 7.4 45.3
10:50 1020 30.12 849 25.07 21.4 70.4 42 8 46.4
10:55 1020 30.12 849 25.07 21.4 70.5 43 8.6 47.4
11:00 1020 30.12 849 25.07 21.7 71 41 8.2 46.8
11:05 1020 30.12 849 25.07 20.2 68.4 44 7.7 45.8
11:10 1020 30.12 849 25.07 20.8 69.4 42 7.6 45.8
11:15 1020 30.12 849 25.07 21.6 70.8 40 7.5 45.5
11:20 1020 30.12 849 25.07 22.1 71.8 41 8.4 47.1
11:25 1020 30.12 849 25.07 22.4 72.2 40 8.3 47
11:30 1020 30.12 849 25.07 22.2 72 40 8 46.4
11:35 1020 30.12 849 25.07 22.2 71.9 40 8 46.4
11:40 1020 30.12 849 25.07 21.7 71 40 7.6 45.7
11:45 1020 30.12 849 25.07 22.5 72.6 37 7.4 45.3
11:50 1019 30.09 849 25.07 23 73.4 36 7.4 45.3
11:55 1019 30.09 849 25.07 23.4 74.2 36 7.8 46
12:00 1019 30.09 849 25.07 22.4 72.2 37 7 44.6
12:05 1019 30.09 849 25.07 22.9 73.3 36 7.3 45.1
12:10 1019 30.09 849 25.07 23.2 73.8 36 7.4 45.4
12:15 1019 30.09 848 25.04 22.8 73 34 6.1 43
12:20 1019 30.09 848 25.04 23.4 74.1 33 6.4 43.6
12:25 1019 30.09 848 25.04 23.8 74.8 33 6.8 44.2
12:30 1019 30.09 848 25.04 23.8 74.8 33 6.6 43.9
12:35 1019 30.09 848 25.04 23.3 74 31 5.5 42
12:40 1019 30.09 848 25.04 24.5 76.1 33 7.2 45
12:45 1019 30.09 848 25.04 24.3 75.7 30 5.9 42.7
12:50 1019 30.09 848 25.04 25 77 28 5.7 42.2
12:55 1019 30.09 848 25.04 25 77.1 29 5.8 42.4
13:00 1019 30.09 848 25.04 23.7 74.7 30 5.2 41.4
13:05 1019 30.09 848 25.04 23.6 74.5 28 4.5 40.1
13:10 1019 30.09 848 25.04 24.6 76.4 26 4.3 39.8
13:15 1019 30.09 848 25.04 23.9 75.1 29 5.1 41.2
13:20 1019 30.09 848 25.04 23.7 74.7 27 3.7 38.7
13:25 1019 30.09 848 25.04 24.4 76 26 3.9 39
13:30 1019 30.09 848 25.04 25 77 23 3 37.4
13:35 1019 30.09 848 25.04 24.9 76.9 25 3.7 38.7
13:40 1019 30.09 848 25.04 25.6 78.1 23 3.4 38.1
13:45 1019 30.09 848 25.04 26 78.7 23 3.4 38
13:50 1019 30.09 848 25.04 25.5 77.9 24 3.8 38.8
13:55 1019 30.09 848 25.04 24.8 76.7 23 2.6 36.8
14:00 1018 30.06 848 25.04 26.2 79.2 23 3.7 38.7
14:05 1018 30.06 848 25.04 25.7 78.3 24 3.8 38.9
14:10 1018 30.06 848 25.04 25.7 78.2 22 2.8 37
14:15 1018 30.06 848 25.04 26.4 79.6 23 3.6 38.6
14:20 1018 30.06 848 25.04 26.5 79.6 22 3.3 38
14:25 1018 30.06 848 25.04 25.9 78.7 23 3.3 38
14:30 1018 30.06 848 25.04 26.2 79.1 21 2.7 36.9
14:35 1018 30.06 847 25.01 26.4 79.5 21 2.5 36.5
14:40 1018 30.06 847 25.01 26.3 79.4 22 3.4 38.1
14:45 1018 30.06 847 25.01 26.6 79.9 21 3 37.4
14:50 1018 30.06 847 25.01 26.4 79.6 21 2.5 36.5
14:55 1018 30.06 847 25.01 26.7 80 20 1.9 35.5
15:00 1018 30.06 847 25.01 26.7 80.1 20 2.2 36
15:05 1018 30.06 847 25.01 26.3 79.3 21 2.3 36.1
15:10 1018 30.06 847 25.01 27.2 80.9 20 2.5 36.5
15:15 1018 30.06 847 25.01 27.4 81.3 20 3 37.4
15:20 1018 30.06 847 25.01 26.6 79.9 20 2 35.6
15:25 1018 30.06 847 25.01 26 78.8 20 1.8 35.2
15:30 1018 30.06 847 25.01 26 78.8 19 1.1 34
15:35 1018 30.06 847 25.01 26 78.8 19 1 33.8
15:40 1018 30.06 847 25.01 26.6 79.9 19 1.3 34.4
15:45 1018 30.06 847 25.01 27.1 80.8 19 1.5 34.7
15:50 1017 30.03 847 25.01 27.6 81.7 18 1.2 34.2
15:55 1017 30.03 847 25.01 27.6 81.7 17 1 33.8
16:00 1017 30.03 847 25.01 27.2 81 18 1.5 34.7
16:05 1017 30.03 846 24.98 27.3 81.1 17 0.7 33.3
16:10 1017 30.03 846 24.98 27.1 80.7 18 0.6 33.1
16:15 1017 30.03 846 24.98 27.4 81.2 18 0.9 33.7
16:20 1017 30.03 846 24.98 26.8 80.3 18 0.9 33.6
16:25 1017 30.03 846 24.98 26.5 79.7 18 0.2 32.3
16:30 1017 30.03 846 24.98 26.4 79.4 18 0.5 32.8
16:35 1017 30.03 846 24.98 26.5 79.7 19 1.2 34.1
16:40 1017 30.03 846 24.98 26.1 79 26 5.4 41.7
16:45 1017 30.03 846 24.98 25.7 78.2 28 6.2 43.1
16:50 1017 30.03 847 25.01 25 77 29 5.9 42.7
16:55 1017 30.03 847 25.01 24.5 76.1 29 5.6 42.1
17:00 1017 30.03 847 25.01 24.2 75.6 30 5.6 42.1
17:05 1017 30.03 846 24.98 24.1 75.4 30 5.7 42.3
17:10 1017 30.03 846 24.98 23.9 75.1 30 5.7 42.2
17:15 1017 30.03 847 25.01 23.8 74.8 31 5.7 42.3
17:20 1018 30.06 847 25.01 23.6 74.5 31 5.8 42.4
17:25 1018 30.06 847 25.01 23.5 74.4 31 5.7 42.2
17:30 1017 30.03 847 25.01 23.5 74.3 31 5.4 41.8
17:35 1017 30.03 847 25.01 23.5 74.3 31 5.6 42.1
17:40 1018 30.06 847 25.01 23.5 74.2 31 5.5 41.9
17:45 1017 30.03 847 25.01 23.4 74 32 5.9 42.7
17:50 1017 30.03 847 25.01 23.4 74.1 32 5.9 42.6
17:55 1017 30.03 847 25.01 23.3 73.9 31 5.6 42.1
18:00 1017 30.03 847 25.01 23.1 73.6 32 5.8 42.4
18:05 1017 30.03 846 24.98 23.1 73.5 31 5.2 41.3
18:10 1017 30.03 846 24.98 23.2 73.7 31 5.3 41.6
18:15 1017 30.03 847 25.01 23.1 73.5 31 5.4 41.8
18:20 1017 30.03 847 25.01 23 73.3 32 5.5 41.8
18:25 1017 30.03 847 25.01 22.9 73.1 31 5.2 41.4
18:30 1018 30.06 847 25.01 22.9 73.2 31 5.3 41.5
18:35 1018 30.06 847 25.01 22.8 73 32 5.6 42.1
18:40 1018 30.06 847 25.01 22.6 72.7 32 5.5 41.9
18:45 1018 30.06 847 25.01 22.6 72.6 33 5.5 41.9
18:50 1018 30.06 847 25.01 22.6 72.7 33 5.6 42.1
18:55 1018 30.06 847 25.01 22.7 72.9 32 5.6 42
19:00 1018 30.06 847 25.01 22.9 73.2 32 5.4 41.8
19:05 1018 30.06 847 25.01 23 73.4 32 5.4 41.7
19:10 1018 30.06 847 25.01 23 73.5 32 5.5 41.9
19:15 1018 30.06 847 25.01 23.1 73.6 31 5.3 41.6
19:20 1018 30.06 847 25.01 23.1 73.5 31 5.4 41.6
19:25 1018 30.06 847 25.01 23 73.4 32 5.6 42
19:30 1018 30.06 847 25.01 22.8 73 32 5.6 42
19:35 1018 30.06 847 25.01 22.6 72.6 32 5.4 41.8
19:40 1018 30.06 847 25.01 22.6 72.6 32 5.1 41.3
19:45 1018 30.06 847 25.01 22.6 72.6 32 5.4 41.7
19:50 1018 30.06 847 25.01 22.3 72.2 33 5.4 41.7
19:55 1018 30.06 847 25.01 22.1 71.8 33 5.4 41.6
20:00 1018 30.06 847 25.01 22.1 71.7 33 5.4 41.8
20:05 1018 30.06 847 25.01 21.9 71.5 34 5.4 41.7
20:10 1018 30.06 847 25.01 21.9 71.3 34 5.5 41.9
20:15 1018 30.06 847 25.01 21.6 70.9 35 5.9 42.6
20:20 1018 30.06 847 25.01 21.3 70.3 36 5.9 42.6
20:25 1018 30.06 847 25.01 21.1 69.9 37 6 42.8
20:30 1018 30.06 847 25.01 20.8 69.5 38 6.1 43
20:35 1018 30.06 847 25.01 20.7 69.3 38 6 42.8
20:40 1018 30.06 847 25.01 20.8 69.4 37 5.8 42.5
20:45 1018 30.06 847 25.01 20.7 69.3 37 5.5 41.9
20:50 1018 30.06 847 25.01 20.8 69.4 36 5.3 41.5
20:55 1018 30.06 847 25.01 20.8 69.5 35 4.9 40.8
21:00 1018 30.06 847 25.01 20.9 69.6 35 5 41
21:05 1018 30.06 847 25.01 20.7 69.2 36 5.4 41.8
21:10 1018 30.06 847 25.01 20.5 68.9 37 5.5 41.8
21:15 1018 30.06 847 25.01 20.3 68.6 37 5.1 41.3
21:20 1018 30.06 848 25.04 20.2 68.4 36 4.9 40.9
21:25 1018 30.06 848 25.04 20.3 68.6 36 5 41
21:30 1018 30.06 848 25.04 20.5 68.8 37 5.6 42.1
21:35 1018 30.06 848 25.04 20.4 68.7 39 6.1 43
21:40 1018 30.06 848 25.04 20.3 68.6 40 6.4 43.5
21:45 1018 30.06 848 25.04 20.3 68.5 40 6.5 43.7
21:50 1018 30.06 848 25.04 20.1 68.1 41 6.6 43.9
21:55 1019 30.09 848 25.04 20 67.9 42 6.7 44.1
22:00 1019 30.09 848 25.04 19.9 67.8 42 6.8 44.2
22:05 1019 30.09 848 25.04 19.7 67.5 43 6.8 44.3
22:10 1019 30.09 848 25.04 19.7 67.4 43 6.9 44.4
22:15 1018 30.06 848 25.04 19.6 67.3 44 7.1 44.7
22:20 1018 30.06 848 25.04 19.6 67.3 44 7 44.6
22:25 1018 30.06 848 25.04 19.6 67.3 44 7.1 44.8
22:30 1018 30.06 848 25.04 19.6 67.3 44 7.1 44.8
22:35 1019 30.09 848 25.04 19.6 67.3 44 7.2 44.9
22:40 1019 30.09 848 25.04 19.5 67.1 45 7.4 45.3
22:45 1019 30.09 848 25.04 19.4 66.8 45 7.4 45.3
22:50 1019 30.09 848 25.04 19.3 66.7 45 7.3 45.1
22:55 1019 30.09 848 25.04 19.3 66.7 46 7.3 45.2
23:00 1019 30.09 848 25.04 19.2 66.5 46 7.4 45.3
23:05 1019 30.09 848 25.04 19 66.3 46 7.4 45.3
23:10 1019 30.09 848 25.04 19 66.2 46 7.4 45.3
23:15 1018 30.06 848 25.04 19 66.1 46 7.3 45.1
23:20 1019 30.09 848 25.04 18.9 66 47 7.5 45.5
23:25 1019 30.09 848 25.04 18.8 65.9 47 7.5 45.5
23:30 1019 30.09 848 25.04 18.7 65.7 48 7.5 45.6
23:35 1019 30.09 848 25.04 18.6 65.5 48 7.6 45.7
23:40 1019 30.09 848 25.04 18.5 65.3 49 7.6 45.7
23:45 1019 30.09 848 25.04 18.4 65 49 7.7 45.8
23:50 1019 30.09 848 25.04 18.3 64.9 50 7.7 45.9
23:55 1019 30.09 848 25.04 18.2 64.8 50 7.8 46.1
24:00 1019 30.09 848 25.04 18.1 64.5 51 7.9 46.2